Date,TemperatureHighF,TemperatureAvgF,TemperatureLowF,DewpointHighF,DewpointAvgF,DewpointLowF,HumidityHigh,HumidityAvg,HumidityLow,PressureMaxIn,PressureMinIn,WindSpeedMaxMPH,WindSpeedAvgMPH,GustSpeedMaxMPH,PrecipitationSumIn
2013-8-1,73.5,63.4,56.3,50.0,45.4,39.2,67,53,35,30.51,30.33,4,0,8,0.00
2013-8-2,77.1,64.3,53.9,57.2,45.6,41.0,78,53,33,30.54,30.27,5,1,13,0.00
2013-8-3,75.9,64.3,55.9,53.6,46.9,41.0,70,55,34,30.51,30.33,4,1,9,0.00
2013-8-4,73.9,63.6,56.6,53.6,46.7,41.5,74,56,34,30.60,30.33,4,1,9,0.00
2013-8-5,75.0,63.5,53.1,60.4,46.0,41.0,81,55,34,30.60,30.36,4,1,9,0.00
2013-8-6,75.1,61.1,56.5,51.8,37.9,-99.9,70,50,34,30.63,30.36,5,1,9,0.00
2013-8-7,75.2,63.0,53.8,56.1,43.1,-99.9,76,53,33,30.66,30.42,4,1,9,0.00
2013-8-8,77.4,65.2,52.7,55.8,46.4,42.5,74,53,33,30.57,30.39,5,1,9,0.00
2013-8-9,76.2,64.6,56.2,53.8,45.7,41.0,71,52,33,30.57,30.30,5,1,9,0.00
2013-8-10,75.4,64.8,54.6,54.1,46.0,41.0,71,53,34,30.57,30.36,5,1,10,0.00
2013-8-11,76.5,65.5,56.8,55.4,47.4,42.8,72,54,33,30.54,30.39,4,1,10,0.00
2013-8-12,76.7,65.8,57.7,53.6,47.4,42.8,74,54,34,30.54,30.36,5,1,10,0.00
2013-8-13,75.5,64.6,56.3,55.4,47.6,42.8,72,55,34,30.54,30.36,4,1,9,0.00
2013-8-14,76.0,64.9,57.3,55.4,49.5,44.6,75,59,35,30.45,30.33,4,1,9,0.00
2013-8-15,77.5,65.9,57.6,62.6,50.9,46.4,82,61,35,30.51,30.33,4,1,9,0.00
2013-8-16,77.5,66.0,57.5,59.8,48.7,-99.9,77,56,34,30.60,30.39,4,1,8,0.00
2013-8-17,76.6,65.7,57.7,59.0,47.4,42.8,74,53,34,30.57,30.39,4,1,8,0.00
2013-8-18,78.1,64.4,54.7,57.2,47.2,42.8,73,56,33,30.54,30.36,4,1,9,0.00
2013-8-19,77.7,65.6,59.4,59.0,48.3,-99.9,78,57,34,30.68,30.48,4,1,8,0.00
2013-8-20,77.0,65.2,57.7,55.4,46.4,-99.9,75,54,34,30.72,30.51,4,1,9,0.00
2013-8-21,78.7,65.2,54.1,55.4,45.0,39.2,72,50,32,30.74,30.54,5,0,9,0.00
2013-8-22,82.0,67.2,54.3,53.3,45.1,41.0,68,47,31,30.80,30.60,4,1,9,0.00
2013-8-23,81.6,65.7,54.1,53.8,44.8,41.0,69,49,31,30.77,30.57,3,0,8,0.00
2013-8-24,77.0,64.9,52.5,57.2,45.2,41.0,73,51,33,30.83,30.60,5,1,9,0.00
2013-8-25,78.6,65.3,52.8,56.9,45.8,41.0,73,51,33,30.95,30.72,3,1,9,0.00
2013-8-26,84.4,67.4,54.0,51.8,46.5,41.0,67,50,30,31.01,30.77,2,0,6,0.00
2013-8-27,82.2,68.9,63.0,53.6,47.1,41.7,58,46,31,31.01,30.74,4,0,8,0.00
2013-8-28,83.6,66.9,59.4,51.4,42.1,-99.9,60,45,31,31.01,30.80,4,0,8,0.00
2013-8-29,87.3,71.3,59.5,51.8,46.2,41.0,53,42,29,31.01,30.92,3,0,8,0.00
2013-8-30,97.9,78.1,63.7,57.2,49.0,42.8,55,38,26,31.01,30.98,1,0,6,0.00
2013-8-31,94.3,79.2,68.9,55.4,49.4,44.6,45,36,27,31.01,31.01,3,0,8,0.00